LavenderCAM.net
Leatherhead Weather
 
Leatherhead Weather
 
 





Aviation weather for

London Heathrow (EGLL) and London Gatwick (EGKK)



London Heathrow (EGLL) METAR / Surface Actual
London / Heathrow Airport, United Kingdom (EGLL) 51-29N 000-27W 0M
Dec 07, 2021 - 03:20 PM EST / 2021.12.07 2020 UTC
Wind: from the SW (220 degrees) at 12 MPH (10 KT):0
Visibility: greater than 7 mile(s):0
Temperature: 42 F (6 C)
Dew Point: 37 F (3 C)
Relative Humidity: 81%
Pressure (altimeter): 29.09 in. Hg (0985 hPa)
ob: EGLL 072020Z AUTO 22010KT 9999 NCD 06/03 Q0985 NOSIG
cycle: 20
London Heathrow (EGLL) TAF / Forecast
2021/12/07 18:57
TAF COR TAF COR EGLL 071753Z 0718/0824 18005KT 9999 SCT030 
      BECMG 0721/0724 20018G28KT PROB40 
      TEMPO 0808/0824 6000 SHRA BKN008 
      BECMG 0821/0824 26015KT


London Gatwick (EGKK) METAR / Surface Actual
London / Gatwick Airport, United Kingdom (EGKK) 51-09N 000-11W 0M
Dec 07, 2021 - 03:20 PM EST / 2021.12.07 2020 UTC
Wind: from the SSW (210 degrees) at 9 MPH (8 KT):0
Visibility: greater than 7 mile(s):0
Temperature: 44 F (7 C)
Dew Point: 37 F (3 C)
Relative Humidity: 75%
Pressure (altimeter): 29.12 in. Hg (0986 hPa)
ob: EGKK 072020Z 21008KT CAVOK 07/03 Q0986
cycle: 20
London Gatwick (EGKK) TAF / Forecast
2021/12/07 18:09
TAF EGKK 071656Z 0718/0824 22012KT 9999 BKN020 
      TEMPO 0720/0824 23015G30KT PROB30 
      TEMPO 0720/0809 4000 SHRA BKN014 PROB30 
      TEMPO 0814/0821 6000 SHRA RA BKN012